createdAt,value
2022-10-12T00:00:43.666Z,5.63
2022-10-12T00:03:13.255Z,5.97
2022-10-12T00:05:41.522Z,5.37
2022-10-12T00:08:11.391Z,5.23
2022-10-12T00:10:41.907Z,5.73
2022-10-12T00:13:10.284Z,5.90
2022-10-12T00:15:39.142Z,5.97
2022-10-12T00:18:07.457Z,5.33
2022-10-12T00:20:35.783Z,5.33
2022-10-12T00:23:03.901Z,5.00
2022-10-12T00:25:36.511Z,5.13
2022-10-12T00:28:04.841Z,5.40
2022-10-12T00:30:33.161Z,3.97
2022-10-12T00:33:01.161Z,4.37
2022-10-12T00:35:29.958Z,3.53
2022-10-12T00:37:58.221Z,3.37
2022-10-12T00:40:26.192Z,3.67
2022-10-12T00:42:55.581Z,3.67
2022-10-12T00:45:25.794Z,4.47
2022-10-12T00:47:57.903Z,3.13
2022-10-12T00:50:30.662Z,4.07
2022-10-12T00:53:03.781Z,3.47
2022-10-12T00:55:35.640Z,3.37
2022-10-12T00:58:05.973Z,4.53
2022-10-12T01:00:34.138Z,4.03
2022-10-12T01:03:03.962Z,3.13
2022-10-12T01:05:32.043Z,3.43
2022-10-12T01:08:00.660Z,3.77
2022-10-12T01:10:28.718Z,4.90
2022-10-12T01:12:56.735Z,3.63
2022-10-12T01:15:30.258Z,3.90
2022-10-12T01:18:06.617Z,4.07
2022-10-12T01:20:55.572Z,4.17
2022-10-12T01:24:08.705Z,4.17
2022-10-12T01:27:02.012Z,4.03
2022-10-12T01:30:05.351Z,3.47
2022-10-12T01:32:47.869Z,3.97
2022-10-12T01:35:21.590Z,5.10
2022-10-12T01:37:58.241Z,4.00
2022-10-12T01:40:31.954Z,4.33
2022-10-12T01:43:00.328Z,5.83
2022-10-12T01:45:28.409Z,5.30
2022-10-12T01:47:58.128Z,5.53
2022-10-12T01:50:36.977Z,5.43
2022-10-12T01:53:16.522Z,5.67
2022-10-12T01:55:52.282Z,5.37
2022-10-12T01:58:33.278Z,5.80
2022-10-12T02:01:07.328Z,5.67
2022-10-12T02:03:45.955Z,6.03
2022-10-12T02:06:18.471Z,5.73
2022-10-12T02:08:52.328Z,5.60
2022-10-12T02:11:22.322Z,5.80
2022-10-12T02:13:54.422Z,5.90
2022-10-12T02:16:28.712Z,6.43
2022-10-12T02:19:00.158Z,7.10
2022-10-12T02:21:31.721Z,6.00
2022-10-12T02:24:02.802Z,6.33
2022-10-12T02:26:33.240Z,5.93
2022-10-12T02:29:04.292Z,5.93
2022-10-12T02:31:38.742Z,5.73
2022-10-12T02:34:12.384Z,6.27
2022-10-12T02:36:49.093Z,6.00
2022-10-12T02:39:21.563Z,6.77
2022-10-12T02:41:52.242Z,6.37
2022-10-12T02:44:24.794Z,5.30
2022-10-12T02:46:54.186Z,6.60
2022-10-12T02:49:25.868Z,6.10
2022-10-12T02:51:54.752Z,5.77
2022-10-12T02:54:22.950Z,7.33
2022-10-12T02:56:50.962Z,6.30
2022-10-12T02:59:19.903Z,5.80
2022-10-12T03:01:48.116Z,7.47
2022-10-12T03:04:16.554Z,6.63
2022-10-12T03:06:46.113Z,7.07
2022-10-12T03:09:14.356Z,6.33
2022-10-12T03:11:43.877Z,6.13
2022-10-12T03:14:12.847Z,6.33
2022-10-12T03:16:40.866Z,6.30
2022-10-12T03:19:09.094Z,6.90
2022-10-12T03:21:37.062Z,7.10
2022-10-12T03:24:06.779Z,7.17
2022-10-12T03:26:35.317Z,6.67
2022-10-12T03:29:03.459Z,7.20
2022-10-12T03:31:31.453Z,7.83
2022-10-12T03:33:59.485Z,7.47
2022-10-12T03:36:27.714Z,7.70
2022-10-12T03:38:55.844Z,8.03
2022-10-12T03:41:25.307Z,6.87
2022-10-12T03:43:53.354Z,6.77
2022-10-12T03:46:21.445Z,7.07
2022-10-12T03:48:49.544Z,7.67
2022-10-12T03:51:17.521Z,7.27
2022-10-12T03:53:45.850Z,6.63
2022-10-12T03:56:19.326Z,7.10
2022-10-12T03:58:48.746Z,7.80
2022-10-12T04:01:16.875Z,7.97
2022-10-12T04:03:45.075Z,7.30
2022-10-12T04:06:15.789Z,8.43
2022-10-12T04:08:48.343Z,7.27
2022-10-12T04:11:20.242Z,7.50
2022-10-12T04:13:50.041Z,7.20
2022-10-12T04:16:18.084Z,6.70
2022-10-12T04:18:46.214Z,6.10
2022-10-12T04:21:16.632Z,6.70
2022-10-12T04:23:45.536Z,6.67
2022-10-12T04:26:13.689Z,6.73
2022-10-12T04:28:41.759Z,6.73
2022-10-12T04:31:11.594Z,6.73
2022-10-12T04:33:39.690Z,7.03
2022-10-12T04:36:08.438Z,6.63
2022-10-12T04:38:36.439Z,7.77
2022-10-12T04:41:05.123Z,7.23
2022-10-12T04:43:33.166Z,7.30
2022-10-12T04:46:01.609Z,6.43
2022-10-12T04:48:30.910Z,7.27
2022-10-12T04:50:59.017Z,6.90
2022-10-12T04:53:26.981Z,7.03
2022-10-12T04:55:54.986Z,7.57
2022-10-12T04:58:22.959Z,7.67
2022-10-12T05:00:51.405Z,6.90
2022-10-12T05:03:19.354Z,7.50
2022-10-12T05:05:48.842Z,6.93
2022-10-12T05:08:17.592Z,6.57
2022-10-12T05:10:47.072Z,7.87
2022-10-12T05:13:15.576Z,7.67
2022-10-12T05:15:44.193Z,8.17
2022-10-12T05:18:12.769Z,7.87
2022-10-12T05:20:40.944Z,7.93
2022-10-12T05:23:10.706Z,8.60
2022-10-12T05:25:38.823Z,8.53
2022-10-12T05:28:07.376Z,8.53
2022-10-12T05:30:35.409Z,8.03
2022-10-12T05:33:03.707Z,7.50
2022-10-12T05:35:31.774Z,7.80
2022-10-12T05:37:59.800Z,8.03
2022-10-12T05:40:29.244Z,7.77
2022-10-12T05:42:57.441Z,7.27
2022-10-12T05:45:25.473Z,7.73
2022-10-12T05:47:53.506Z,7.60
2022-10-12T05:50:22.144Z,8.10
2022-10-12T05:52:50.104Z,7.97
2022-10-12T05:55:18.329Z,7.60
2022-10-12T05:57:51.945Z,7.00
2022-10-12T06:00:20.282Z,7.27
2022-10-12T06:02:48.351Z,7.47
2022-10-12T06:05:16.653Z,6.90
2022-10-12T06:07:44.922Z,8.20
2022-10-12T06:10:13.074Z,7.43
2022-10-12T06:12:41.445Z,7.90
2022-10-12T06:15:11.789Z,9.07
2022-10-12T06:17:39.795Z,8.73
2022-10-12T06:20:09.282Z,8.90
2022-10-12T06:22:37.599Z,8.40
2022-10-12T06:25:06.738Z,8.27
2022-10-12T06:27:34.810Z,8.00
2022-10-12T06:30:03.065Z,7.83
2022-10-12T06:32:32.876Z,8.70
2022-10-12T06:35:00.929Z,8.33
2022-10-12T06:37:48.446Z,8.23
2022-10-12T06:40:17.641Z,8.83
2022-10-12T06:42:45.778Z,8.10
2022-10-12T06:45:14.332Z,8.17
2022-10-12T06:47:44.037Z,8.33
2022-10-12T06:50:12.737Z,9.47
2022-10-12T06:52:41.023Z,5.73
2022-10-12T06:55:10.398Z,5.70
2022-10-12T06:57:38.475Z,6.33
2022-10-12T07:00:08.641Z,6.57
2022-10-12T07:02:37.437Z,5.93
2022-10-12T07:05:08.377Z,6.30
2022-10-12T07:07:37.810Z,5.20
2022-10-12T07:10:07.432Z,5.17
2022-10-12T07:12:36.914Z,5.67
2022-10-12T07:15:05.997Z,4.93
2022-10-12T07:17:34.647Z,6.47
2022-10-12T07:20:02.736Z,6.57
2022-10-12T07:22:32.152Z,5.80
2022-10-12T07:25:00.140Z,5.80
2022-10-12T07:27:28.140Z,5.80
2022-10-12T07:29:56.208Z,6.50
2022-10-12T07:32:24.290Z,6.13
2022-10-12T07:34:52.314Z,5.70
2022-10-12T07:37:20.318Z,5.67
2022-10-12T07:39:49.780Z,7.00
2022-10-12T07:42:19.541Z,6.43
2022-10-12T07:44:47.810Z,5.93
2022-10-12T07:47:17.596Z,5.80
2022-10-12T07:49:45.630Z,5.90
2022-10-12T07:52:13.598Z,5.93
2022-10-12T07:54:41.618Z,5.90
2022-10-12T07:57:10.945Z,5.53
2022-10-12T07:59:39.009Z,7.23
2022-10-12T08:02:07.521Z,6.80
2022-10-12T08:04:35.577Z,8.00
2022-10-12T08:07:03.898Z,7.73
2022-10-12T08:09:31.912Z,8.10
2022-10-12T08:11:59.915Z,7.50
2022-10-12T08:14:29.284Z,7.17
2022-10-12T08:16:57.296Z,7.23
2022-10-12T08:19:25.416Z,6.50
2022-10-12T08:21:53.613Z,6.47
2022-10-12T08:24:21.754Z,7.60
2022-10-12T08:26:49.747Z,6.77
2022-10-12T08:29:17.720Z,7.53
2022-10-12T08:31:49.328Z,6.97
2022-10-12T08:34:17.826Z,7.90
2022-10-12T08:36:45.814Z,7.07
2022-10-12T08:39:13.876Z,7.68
2022-10-12T08:41:51.345Z,8.63
2022-10-12T08:44:43.603Z,8.23
2022-10-12T08:47:17.058Z,9.07
2022-10-12T08:49:49.856Z,9.93
2022-10-12T08:52:28.095Z,8.73
2022-10-12T08:55:00.235Z,7.40
2022-10-12T08:57:28.246Z,6.20
2022-10-12T08:59:56.358Z,6.57
2022-10-12T09:02:38.365Z,5.93
2022-10-12T09:05:10.047Z,4.47
2022-10-12T09:07:42.947Z,4.20
2022-10-12T09:10:24.740Z,3.95
2022-10-12T09:13:00.752Z,3.45
2022-10-12T09:15:33.529Z,3.05
2022-10-12T09:18:06.677Z,3.35
2022-10-12T09:20:39.773Z,3.10
2022-10-12T09:23:23.654Z,2.88
2022-10-12T09:25:51.839Z,3.08
2022-10-12T09:28:26.797Z,3.63
2022-10-12T09:31:07.398Z,3.67
2022-10-12T09:33:42.789Z,3.78
2022-10-12T09:36:13.970Z,3.45
2022-10-12T09:38:41.999Z,4.22
2022-10-12T09:41:19.941Z,3.35
2022-10-12T09:43:49.971Z,3.40
2022-10-12T09:46:25.184Z,3.35
2022-10-12T09:49:02.106Z,3.60
2022-10-12T09:51:32.313Z,3.70
2022-10-12T09:54:03.668Z,4.15
2022-10-12T09:56:39.707Z,2.97
2022-10-12T09:59:18.600Z,3.05
2022-10-12T10:01:59.933Z,3.35
2022-10-12T10:04:30.713Z,3.80
2022-10-12T10:07:28.568Z,3.63
2022-10-12T10:10:15.519Z,3.95
2022-10-12T10:12:55.351Z,3.55
2022-10-12T10:15:27.557Z,3.58
2022-10-12T10:17:59.599Z,3.53
2022-10-12T10:20:32.637Z,3.10
2022-10-12T10:23:03.369Z,3.65
2022-10-12T10:25:32.099Z,3.67
2022-10-12T10:28:22.140Z,3.42
2022-10-12T10:31:02.871Z,3.58
2022-10-12T10:33:33.021Z,3.88
2022-10-12T10:36:05.782Z,3.67
2022-10-12T10:38:49.719Z,3.90
2022-10-12T10:41:19.842Z,3.35
2022-10-12T10:43:49.480Z,3.42
2022-10-12T10:46:23.658Z,3.47
2022-10-12T10:48:56.378Z,4.10
2022-10-12T10:51:42.012Z,4.00
2022-10-12T10:54:18.233Z,4.20
2022-10-12T10:56:47.656Z,4.18
2022-10-12T10:59:27.553Z,4.22
2022-10-12T11:01:59.720Z,4.13
2022-10-12T11:04:32.963Z,4.30
2022-10-12T11:07:08.598Z,3.75
2022-10-12T11:09:42.315Z,4.00
2022-10-12T11:12:15.313Z,4.22
2022-10-12T11:14:46.572Z,4.38
2022-10-12T11:17:21.038Z,4.18
2022-10-12T11:19:53.918Z,3.83
2022-10-12T11:22:28.821Z,4.22
2022-10-12T11:25:03.913Z,4.15
2022-10-12T11:27:36.857Z,4.18
2022-10-12T11:30:14.669Z,4.30
2022-10-12T11:32:46.224Z,4.07
2022-10-12T11:35:17.626Z,4.80
2022-10-12T11:37:52.650Z,4.55
2022-10-12T11:41:02.668Z,4.80
2022-10-12T11:43:19.367Z,4.57
2022-10-12T11:45:50.795Z,4.60
2022-10-12T11:48:27.095Z,3.85
2022-10-12T11:51:03.703Z,4.18
2022-10-12T11:53:39.718Z,4.13
2022-10-12T11:56:13.590Z,4.13
2022-10-12T11:59:01.496Z,4.15
2022-10-12T12:01:55.055Z,4.85
2022-10-12T12:04:44.066Z,7.05
2022-10-12T12:07:42.116Z,4.18
2022-10-12T12:10:59.174Z,3.80
2022-10-12T12:13:28.684Z,4.10
2022-10-12T12:16:26.266Z,3.88
2022-10-12T12:19:15.095Z,3.88
2022-10-12T12:22:29.558Z,3.88
2022-10-12T12:25:20.169Z,3.58
2022-10-12T12:27:51.805Z,4.07
2022-10-12T12:30:31.082Z,4.38
2022-10-12T12:33:01.298Z,5.90
2022-10-12T12:35:33.918Z,4.45
2022-10-12T12:38:27.272Z,3.90
2022-10-12T12:41:11.500Z,3.83
2022-10-12T12:43:56.094Z,4.63
2022-10-12T12:46:41.070Z,3.65
2022-10-12T12:49:26.475Z,4.05
2022-10-12T12:51:57.862Z,4.72
2022-10-12T12:54:26.546Z,3.50
2022-10-12T12:57:39.515Z,4.70
2022-10-12T13:00:20.042Z,5.15
2022-10-12T13:03:20.974Z,3.53
2022-10-12T13:06:32.341Z,3.58
2022-10-12T13:09:40.178Z,4.00
2022-10-12T13:12:33.430Z,4.30
2022-10-12T13:15:26.247Z,3.33
2022-10-12T13:18:45.234Z,4.00
2022-10-12T13:21:18.888Z,4.15
2022-10-12T13:23:49.521Z,3.55
2022-10-12T13:26:23.057Z,4.10
2022-10-12T13:28:53.246Z,3.50
2022-10-12T13:31:26.483Z,3.60
2022-10-12T13:34:02.118Z,3.83
2022-10-12T13:36:33.350Z,4.25
2022-10-12T13:39:08.564Z,3.47
2022-10-12T13:41:36.828Z,3.97
2022-10-12T13:44:07.197Z,3.22
2022-10-12T13:46:38.515Z,4.35
2022-10-12T13:49:14.427Z,4.57
2022-10-12T13:51:44.902Z,4.43
2022-10-12T13:54:17.997Z,3.92
2022-10-12T13:56:47.479Z,3.97
2022-10-12T13:59:19.590Z,4.15
2022-10-12T14:01:54.331Z,4.47
2022-10-12T14:04:22.634Z,4.28
2022-10-12T14:06:57.830Z,4.15
2022-10-12T14:09:28.077Z,4.47
2022-10-12T14:11:57.257Z,3.90
2022-10-12T14:14:35.177Z,4.72
2022-10-12T14:17:03.381Z,4.47
2022-10-12T14:19:42.743Z,4.72
2022-10-12T14:22:12.891Z,4.85
2022-10-12T14:24:41.413Z,4.20
2022-10-12T14:27:19.979Z,3.85
2022-10-12T14:29:48.757Z,4.32
2022-10-12T14:32:40.832Z,4.30
2022-10-12T14:35:20.215Z,4.28
2022-10-12T14:37:51.184Z,4.50
2022-10-12T14:40:35.176Z,4.53
2022-10-12T14:43:08.121Z,4.07
2022-10-12T14:45:37.179Z,4.22
2022-10-12T14:48:07.108Z,4.30
2022-10-12T14:50:35.225Z,4.95
2022-10-12T14:53:10.461Z,5.03
2022-10-12T14:55:38.688Z,3.67
2022-10-12T14:58:08.242Z,4.07
2022-10-12T15:00:38.534Z,3.40
2022-10-12T15:03:06.870Z,3.53
2022-10-12T15:05:35.563Z,4.75
2022-10-12T15:08:08.764Z,4.53
2022-10-12T15:10:37.557Z,4.10
2022-10-12T15:13:05.650Z,3.90
2022-10-12T15:15:39.064Z,4.28
2022-10-12T15:18:07.676Z,3.47
2022-10-12T15:20:36.611Z,4.10
2022-10-12T15:23:06.830Z,3.90
2022-10-12T15:25:43.238Z,4.05
2022-10-12T15:28:11.375Z,4.32
2022-10-12T15:30:52.115Z,4.78
2022-10-12T15:33:27.582Z,4.72
2022-10-12T15:35:56.343Z,4.35
2022-10-12T15:38:26.174Z,4.30
2022-10-12T15:40:58.139Z,4.30
2022-10-12T15:43:26.826Z,4.55
2022-10-12T15:45:56.368Z,4.13
2022-10-12T15:48:24.411Z,4.28
2022-10-12T15:50:52.576Z,5.35
2022-10-12T15:53:23.890Z,5.75
2022-10-12T15:55:54.259Z,4.57
2022-10-12T15:58:22.957Z,4.63
2022-10-12T16:00:51.542Z,4.05
2022-10-12T16:03:25.519Z,4.20
2022-10-12T16:05:54.825Z,4.72
2022-10-12T16:08:23.238Z,6.13
2022-10-12T16:10:53.093Z,4.93
2022-10-12T16:13:21.372Z,4.70
2022-10-12T16:15:49.393Z,4.68
2022-10-12T16:18:17.919Z,5.70
2022-10-12T16:20:51.130Z,4.15
2022-10-12T16:23:27.077Z,4.20
2022-10-12T16:25:57.212Z,3.88
2022-10-12T16:28:26.623Z,4.63
2022-10-12T16:30:54.810Z,3.83
2022-10-12T16:33:22.946Z,3.80
2022-10-12T16:35:50.953Z,4.25
2022-10-12T16:38:20.215Z,4.03
2022-10-12T16:40:49.924Z,3.65
2022-10-12T16:43:19.573Z,3.70
2022-10-12T16:45:56.009Z,3.38
2022-10-12T16:48:24.110Z,4.18
2022-10-12T16:50:52.225Z,4.13
2022-10-12T16:53:20.515Z,4.40
2022-10-12T16:55:48.952Z,4.07
2022-10-12T16:58:16.978Z,3.85
2022-10-12T17:00:46.610Z,4.00
2022-10-12T17:03:14.643Z,3.60
2022-10-12T17:05:43.250Z,4.20
2022-10-12T17:08:15.289Z,3.55
2022-10-12T17:10:45.100Z,4.20
2022-10-12T17:13:14.357Z,3.65
2022-10-12T17:15:42.941Z,4.05
2022-10-12T17:18:12.339Z,4.32
2022-10-12T17:20:40.334Z,4.38
2022-10-12T17:23:08.329Z,5.30
2022-10-12T17:25:37.072Z,3.40
2022-10-12T17:28:05.275Z,4.10
2022-10-12T17:30:33.296Z,4.47
2022-10-12T17:33:01.356Z,4.50
2022-10-12T17:35:30.673Z,3.67
2022-10-12T17:37:58.749Z,4.82
2022-10-12T17:40:26.743Z,4.53
2022-10-12T17:42:54.780Z,5.13
2022-10-12T17:45:22.812Z,4.93
2022-10-12T17:47:52.502Z,4.00
2022-10-12T17:50:20.485Z,4.32
2022-10-12T17:52:49.853Z,4.47
2022-10-12T17:55:43.525Z,3.97
2022-10-12T17:58:06.178Z,6.68
2022-10-12T18:00:35.229Z,4.13
2022-10-12T18:03:03.326Z,4.30
2022-10-12T18:05:31.397Z,4.30
2022-10-12T18:08:00.762Z,3.90
2022-10-12T18:10:28.889Z,4.70
2022-10-12T18:12:57.194Z,4.72
2022-10-12T18:15:25.256Z,4.43
2022-10-12T18:17:54.517Z,4.65
2022-10-12T18:20:22.684Z,5.53
2022-10-12T18:22:50.713Z,4.93
2022-10-12T18:25:20.122Z,8.27
2022-10-12T18:27:50.129Z,9.70
2022-10-12T18:30:18.325Z,8.85
2022-10-12T18:32:46.612Z,13.25
2022-10-12T18:35:14.944Z,10.18
2022-10-12T18:37:42.934Z,9.50
2022-10-12T18:40:12.374Z,11.38
2022-10-12T18:42:41.862Z,12.77
2022-10-12T18:45:10.585Z,13.40
2022-10-12T18:47:38.821Z,14.90
2022-10-12T18:50:08.744Z,10.52
2022-10-12T18:52:36.820Z,14.55
2022-10-12T18:55:05.354Z,14.57
2022-10-12T18:57:37.674Z,11.13
2022-10-12T19:00:10.750Z,12.18
2022-10-12T19:02:38.893Z,9.15
2022-10-12T19:05:07.310Z,11.65
2022-10-12T19:07:36.203Z,9.18
2022-10-12T19:10:06.920Z,7.00
2022-10-12T19:12:35.272Z,9.07
2022-10-12T19:15:03.371Z,8.13
2022-10-12T19:17:33.165Z,11.18
2022-10-12T19:20:02.816Z,11.85
2022-10-12T19:22:31.056Z,14.98
2022-10-12T19:24:59.078Z,12.88
2022-10-12T19:27:27.183Z,11.20
2022-10-12T19:29:55.381Z,11.88
2022-10-12T19:32:23.385Z,9.85
2022-10-12T19:34:53.270Z,10.88
2022-10-12T19:37:21.391Z,8.75
2022-10-12T19:39:49.693Z,11.60
2022-10-12T19:42:18.019Z,12.43
2022-10-12T19:44:46.226Z,8.30
2022-10-12T19:47:14.234Z,11.80
2022-10-12T19:49:45.430Z,15.32
2022-10-12T19:52:15.098Z,10.15
2022-10-12T19:54:43.281Z,12.38
2022-10-12T19:57:11.687Z,10.05
2022-10-12T19:59:39.751Z,8.45
2022-10-12T20:02:09.150Z,8.60
2022-10-12T20:04:37.206Z,10.05
2022-10-12T20:07:05.255Z,11.00
2022-10-12T20:09:34.596Z,8.27
2022-10-12T20:12:02.850Z,8.70
2022-10-12T20:14:30.945Z,8.10
2022-10-12T20:16:59.033Z,7.35
2022-10-12T20:19:27.208Z,7.63
2022-10-12T20:21:55.297Z,8.82
2022-10-12T20:24:23.666Z,10.18
2022-10-12T20:26:53.024Z,8.05
2022-10-12T20:29:21.058Z,7.35
2022-10-12T20:31:49.097Z,7.22
2022-10-12T20:34:17.176Z,10.98
2022-10-12T20:36:45.662Z,11.73
2022-10-12T20:39:14.329Z,10.93
2022-10-12T20:41:42.647Z,10.63
2022-10-12T20:44:12.166Z,10.57
2022-10-12T20:46:40.284Z,12.25
2022-10-12T20:49:08.514Z,9.32
2022-10-12T20:51:39.888Z,9.27
2022-10-12T20:54:09.058Z,12.10
2022-10-12T20:56:41.218Z,6.35
2022-10-12T20:59:11.266Z,7.95
2022-10-12T21:01:39.277Z,7.78
2022-10-12T21:04:07.292Z,10.02
2022-10-12T21:06:36.222Z,9.90
2022-10-12T21:09:05.245Z,10.13
2022-10-12T21:11:34.392Z,10.90
2022-10-12T21:14:02.413Z,10.13
2022-10-12T21:16:33.275Z,10.07
2022-10-12T21:19:01.264Z,9.77
2022-10-12T21:21:29.264Z,10.82
2022-10-12T21:23:58.836Z,11.93
2022-10-12T21:26:28.401Z,10.63
2022-10-12T21:28:56.573Z,10.65
2022-10-12T21:31:29.543Z,12.00
2022-10-12T21:34:01.758Z,10.70
2022-10-12T21:36:31.170Z,8.07
2022-10-12T21:38:59.382Z,9.77
2022-10-12T21:41:29.624Z,7.63
2022-10-12T21:43:59.022Z,10.73
2022-10-12T21:46:29.206Z,10.63
2022-10-12T21:48:58.613Z,12.00
2022-10-12T21:51:29.758Z,11.35
2022-10-12T21:53:58.009Z,11.07
2022-10-12T21:56:27.735Z,11.70
2022-10-12T21:58:58.310Z,10.98
2022-10-12T22:01:29.505Z,11.32
2022-10-12T22:03:59.550Z,10.63
2022-10-12T22:06:29.951Z,11.95
2022-10-12T22:09:04.907Z,10.25
2022-10-12T22:11:34.778Z,10.63
2022-10-12T22:14:05.175Z,11.07
2022-10-12T22:16:33.658Z,11.52
2022-10-12T22:19:03.145Z,11.27
2022-10-12T22:21:36.198Z,9.70
2022-10-12T22:24:04.433Z,10.75
2022-10-12T22:26:32.719Z,11.25
2022-10-12T22:29:03.208Z,11.35
2022-10-12T22:31:31.333Z,10.50
2022-10-12T22:33:59.330Z,11.05
2022-10-12T22:36:28.545Z,9.23
2022-10-12T22:38:58.026Z,10.52
2022-10-12T22:41:26.436Z,11.43
2022-10-12T22:43:56.715Z,9.70
2022-10-12T22:46:26.727Z,12.15
2022-10-12T22:48:55.415Z,11.63
2022-10-12T22:51:30.946Z,10.32
2022-10-12T22:54:01.141Z,10.27
2022-10-12T22:56:29.870Z,9.88
2022-10-12T22:58:59.824Z,6.90
2022-10-12T23:01:28.442Z,7.30
2022-10-12T23:03:56.754Z,6.97
2022-10-12T23:06:25.937Z,6.07
2022-10-12T23:08:54.013Z,6.38
2022-10-12T23:11:25.648Z,7.17
2022-10-12T23:13:56.069Z,7.35
2022-10-12T23:16:26.790Z,5.95
2022-10-12T23:18:59.269Z,5.50
2022-10-12T23:21:28.696Z,6.60
2022-10-12T23:23:57.054Z,7.35
2022-10-12T23:26:27.929Z,7.40
2022-10-12T23:28:56.487Z,7.93
2022-10-12T23:31:26.973Z,8.33
2022-10-12T23:33:56.894Z,7.50
2022-10-12T23:36:25.164Z,8.30
2022-10-12T23:38:53.413Z,8.75
2022-10-12T23:41:21.689Z,7.50
2022-10-12T23:43:50.996Z,8.43
2022-10-12T23:46:19.999Z,13.05
2022-10-12T23:48:48.053Z,10.68
2022-10-12T23:51:16.137Z,13.60
2022-10-12T23:53:44.169Z,12.00
2022-10-12T23:56:12.229Z,12.32
2022-10-12T23:58:40.615Z,11.77
